sensor_id;sensor_type;location;lat;lon;timestamp;pressure;altitude;pressure_sealevel;temperature;humidity
61744;BME280;48718;54.994;73.352;2022-08-04T00:01:44;100797.84;;;26.36;40.93
61744;BME280;48718;54.994;73.352;2022-08-04T00:09:35;100808.81;;;26.36;41.01
61744;BME280;48718;54.994;73.352;2022-08-04T00:12:06;100795.38;;;26.35;41.04
61744;BME280;48718;54.994;73.352;2022-08-04T00:14:34;100800.06;;;26.34;41.11
61744;BME280;48718;54.994;73.352;2022-08-04T00:17:05;100799.75;;;26.36;40.93
61744;BME280;48718;54.994;73.352;2022-08-04T00:19:43;100797.00;;;26.36;41.07
61744;BME280;48718;54.994;73.352;2022-08-04T00:22:10;100792.34;;;26.36;41.04
61744;BME280;48718;54.994;73.352;2022-08-04T00:24:38;100796.19;;;26.35;41.05
61744;BME280;48718;54.994;73.352;2022-08-04T00:27:07;100798.94;;;26.35;41.11
61744;BME280;48718;54.994;73.352;2022-08-04T00:29:36;100803.31;;;26.36;41.05
61744;BME280;48718;54.994;73.352;2022-08-04T00:32:03;100797.84;;;26.36;41.06
61744;BME280;48718;54.994;73.352;2022-08-04T00:34:33;100797.84;;;26.36;41.03
61744;BME280;48718;54.994;73.352;2022-08-04T00:37:00;100795.09;;;26.36;41.03
61744;BME280;48718;54.994;73.352;2022-08-04T00:39:26;100797.84;;;26.36;41.10
61744;BME280;48718;54.994;73.352;2022-08-04T00:42:15;100794.25;;;26.36;41.20
61744;BME280;48718;54.994;73.352;2022-08-04T00:54:00;100798.13;;;26.35;40.98
61744;BME280;48718;54.994;73.352;2022-08-04T00:59:54;100801.69;;;26.35;41.10
61744;BME280;48718;54.994;73.352;2022-08-04T01:02:35;100800.84;;;26.35;40.99
61744;BME280;48718;54.994;73.352;2022-08-04T01:05:04;100813.47;;;26.36;41.06
61744;BME280;48718;54.994;73.352;2022-08-04T01:08:11;100813.47;;;26.36;41.13
61744;BME280;48718;54.994;73.352;2022-08-04T01:16:06;100820.88;;;26.35;41.22
61744;BME280;48718;54.994;73.352;2022-08-04T01:27:05;100817.63;;;26.33;42.43
61744;BME280;48718;54.994;73.352;2022-08-04T01:29:50;100822.78;;;26.35;42.64
61744;BME280;48718;54.994;73.352;2022-08-04T01:32:33;100815.66;;;26.34;42.46
61744;BME280;48718;54.994;73.352;2022-08-04T01:35:27;100825.84;;;26.33;42.53
61744;BME280;48718;54.994;73.352;2022-08-04T01:38:18;100818.72;;;26.32;42.39
61744;BME280;48718;54.994;73.352;2022-08-04T01:40:50;100822.56;;;26.31;42.35
61744;BME280;48718;54.994;73.352;2022-08-04T01:43:29;100822.56;;;26.31;42.26
61744;BME280;48718;54.994;73.352;2022-08-04T01:46:00;100825.00;;;26.33;42.57
61744;BME280;48718;54.994;73.352;2022-08-04T01:48:27;100828.59;;;26.33;43.09
61744;BME280;48718;54.994;73.352;2022-08-04T01:51:02;100837.34;;;26.35;44.43
61744;BME280;48718;54.994;73.352;2022-08-04T01:53:34;100835.69;;;26.34;44.78
61744;BME280;48718;54.994;73.352;2022-08-04T01:56:03;100834.59;;;26.35;44.66
61744;BME280;48718;54.994;73.352;2022-08-04T01:58:32;100834.59;;;26.35;44.45
61744;BME280;48718;54.994;73.352;2022-08-04T02:01:07;100840.06;;;26.35;44.03
61744;BME280;48718;54.994;73.352;2022-08-04T02:03:40;100847.78;;;26.33;43.30
61744;BME280;48718;54.994;73.352;2022-08-04T02:06:27;100838.44;;;26.34;43.40
61744;BME280;48718;54.994;73.352;2022-08-04T02:09:09;100839.03;;;26.31;43.30
61744;BME280;48718;54.994;73.352;2022-08-04T02:12:16;100839.03;;;26.31;42.73
61744;BME280;48718;54.994;73.352;2022-08-04T02:14:44;100836.59;;;26.30;42.54
61744;BME280;48718;54.994;73.352;2022-08-04T02:20:37;100838.22;;;26.31;42.40
61744;BME280;48718;54.994;73.352;2022-08-04T02:23:12;100839.81;;;26.32;42.41
61744;BME280;48718;54.994;73.352;2022-08-04T02:25:45;100837.38;;;26.30;42.14
61744;BME280;48718;54.994;73.352;2022-08-04T02:36:08;100839.59;;;26.28;42.19
61744;BME280;48718;54.994;73.352;2022-08-04T02:38:54;100841.22;;;26.29;42.32
61744;BME280;48718;54.994;73.352;2022-08-04T02:41:24;100846.72;;;26.29;42.24
61744;BME280;48718;54.994;73.352;2022-08-04T02:43:55;100841.22;;;26.29;42.25
61744;BME280;48718;54.994;73.352;2022-08-04T02:46:23;100846.72;;;26.29;42.19
61744;BME280;48718;54.994;73.352;2022-08-04T02:48:51;100858.22;;;26.31;42.06
61744;BME280;48718;54.994;73.352;2022-08-04T02:51:44;100844.50;;;26.31;42.18
61744;BME280;48718;54.994;73.352;2022-08-04T02:54:08;100844.50;;;26.31;42.19
61744;BME280;48718;54.994;73.352;2022-08-04T02:56:54;100855.47;;;26.31;41.99
61744;BME280;48718;54.994;73.352;2022-08-04T02:59:24;100850.78;;;26.32;41.98
61744;BME280;48718;54.994;73.352;2022-08-04T03:01:56;100856.28;;;26.32;41.93
61744;BME280;48718;54.994;73.352;2022-08-04T03:23:59;100842.34;;;26.28;41.69
61744;BME280;48718;54.994;73.352;2022-08-04T03:26:45;100842.34;;;26.28;41.62
61744;BME280;48718;54.994;73.352;2022-08-04T03:32:48;100848.66;;;26.29;41.94
61744;BME280;48718;54.994;73.352;2022-08-04T03:35:39;100852.19;;;26.29;41.98
61744;BME280;48718;54.994;73.352;2022-08-04T03:44:33;100857.13;;;26.32;41.64
61744;BME280;48718;54.994;73.352;2022-08-04T03:58:38;100852.44;;;26.33;41.48
61744;BME280;48718;54.994;73.352;2022-08-04T04:01:40;100847.78;;;26.33;40.71
61744;BME280;48718;54.994;73.352;2022-08-04T04:20:52;100852.19;;;26.29;38.80
61744;BME280;48718;54.994;73.352;2022-08-04T04:32:12;100842.88;;;26.30;38.55
61744;BME280;48718;54.994;73.352;2022-08-04T04:41:03;100843.94;;;26.34;38.63
61744;BME280;48718;54.994;73.352;2022-08-04T04:46:43;100843.69;;;26.31;37.69
61744;BME280;48718;54.994;73.352;2022-08-04T04:52:33;100835.75;;;26.29;37.59
61744;BME280;48718;54.994;73.352;2022-08-04T04:57:28;100831.91;;;26.30;37.41
61744;BME280;48718;54.994;73.352;2022-08-04T04:59:59;100844.50;;;26.31;37.30
61744;BME280;48718;54.994;73.352;2022-08-04T05:08:33;100839.31;;;26.30;37.17
61744;BME280;48718;54.994;73.352;2022-08-04T05:14:06;100828.06;;;26.31;37.13
61744;BME280;48718;54.994;73.352;2022-08-04T05:19:52;100827.25;;;26.31;37.00
61744;BME280;48718;54.994;73.352;2022-08-04T05:25:02;100826.63;;;26.34;36.76
61744;BME280;48718;54.994;73.352;2022-08-04T05:27:36;100842.28;;;26.33;36.81
61744;BME280;48718;54.994;73.352;2022-08-04T05:30:06;100831.84;;;26.35;36.64
61744;BME280;48718;54.994;73.352;2022-08-04T05:32:56;100840.06;;;26.35;36.42
61744;BME280;48718;54.994;73.352;2022-08-04T05:35:32;100833.50;;;26.36;36.33
61744;BME280;48718;54.994;73.352;2022-08-04T05:38:05;100826.38;;;26.35;36.23
61744;BME280;48718;54.994;73.352;2022-08-04T05:40:34;100812.66;;;26.35;36.22
61744;BME280;48718;54.994;73.352;2022-08-04T05:43:02;100819.78;;;26.36;36.50
61744;BME280;48718;54.994;73.352;2022-08-04T05:45:30;100818.66;;;26.38;36.55
61744;BME280;48718;54.994;73.352;2022-08-04T05:48:02;100823.03;;;26.39;36.60
61744;BME280;48718;54.994;73.352;2022-08-04T05:50:31;100823.84;;;26.39;36.38
61744;BME280;48718;54.994;73.352;2022-08-04T05:52:59;100830.44;;;26.38;36.08
61744;BME280;48718;54.994;73.352;2022-08-04T05:55:28;100812.06;;;26.39;36.15
61744;BME280;48718;54.994;73.352;2022-08-04T05:57:56;100806.59;;;26.39;36.48
61744;BME280;48718;54.994;73.352;2022-08-04T06:00:25;100806.59;;;26.39;36.28
61744;BME280;48718;54.994;73.352;2022-08-04T06:02:54;100813.72;;;26.40;36.42
61744;BME280;48718;54.994;73.352;2022-08-04T06:05:23;100809.88;;;26.41;36.11
61744;BME280;48718;54.994;73.352;2022-08-04T06:07:55;100820.84;;;26.41;36.04
61744;BME280;48718;54.994;73.352;2022-08-04T06:10:23;100807.13;;;26.41;35.98
61744;BME280;48718;54.994;73.352;2022-08-04T06:12:55;100799.69;;;26.41;36.09
61744;BME280;48718;54.994;73.352;2022-08-04T06:15:24;100803.53;;;26.40;36.36
61744;BME280;48718;54.994;73.352;2022-08-04T06:18:02;100797.78;;;26.42;37.03
61744;BME280;48718;54.994;73.352;2022-08-04T06:20:33;100801.31;;;26.42;37.19
61744;BME280;48718;54.994;73.352;2022-08-04T06:23:06;100796.38;;;26.44;37.48
61744;BME280;48718;54.994;73.352;2022-08-04T06:25:38;100810.91;;;26.45;36.95
61744;BME280;48718;54.994;73.352;2022-08-04T06:28:07;100796.69;;;26.43;36.65
61744;BME280;48718;54.994;73.352;2022-08-04T06:30:35;100798.31;;;26.44;36.49
61744;BME280;48718;54.994;73.352;2022-08-04T06:33:03;100798.31;;;26.44;36.47
61744;BME280;48718;54.994;73.352;2022-08-04T06:35:39;100792.00;;;26.43;36.21
61744;BME280;48718;54.994;73.352;2022-08-04T06:38:07;100798.31;;;26.44;36.60
61744;BME280;48718;54.994;73.352;2022-08-04T06:43:04;100803.78;;;26.44;36.29
61744;BME280;48718;54.994;73.352;2022-08-04T06:45:33;100786.50;;;26.43;35.80
61744;BME280;48718;54.994;73.352;2022-08-04T06:48:02;100804.59;;;26.44;35.66
61744;BME280;48718;54.994;73.352;2022-08-04T06:50:32;100798.31;;;26.44;35.46
61744;BME280;48718;54.994;73.352;2022-08-04T06:52:59;100784.59;;;26.44;35.44
61744;BME280;48718;54.994;73.352;2022-08-04T06:57:46;100787.34;;;26.44;36.33
61744;BME280;48718;54.994;73.352;2022-08-04T07:00:15;100774.94;;;26.46;36.63
61744;BME280;48718;54.994;73.352;2022-08-04T07:02:52;100779.63;;;26.46;36.76
61744;BME280;48718;54.994;73.352;2022-08-04T07:05:19;100799.38;;;26.48;36.85
61744;BME280;48718;54.994;73.352;2022-08-04T07:07:46;100779.63;;;26.46;36.13
61744;BME280;48718;54.994;73.352;2022-08-04T07:10:14;100778.22;;;26.48;36.25
61744;BME280;48718;54.994;73.352;2022-08-04T07:12:40;100768.09;;;26.49;36.88
61744;BME280;48718;54.994;73.352;2022-08-04T07:15:09;100768.09;;;26.49;36.67
61744;BME280;48718;54.994;73.352;2022-08-04T07:17:39;100777.91;;;26.50;36.81
61744;BME280;48718;54.994;73.352;2022-08-04T07:20:07;100779.84;;;26.49;36.73
61744;BME280;48718;54.994;73.352;2022-08-04T07:22:45;100776.81;;;26.51;36.90
61744;BME280;48718;54.994;73.352;2022-08-04T07:25:14;100776.00;;;26.50;36.94
61744;BME280;48718;54.994;73.352;2022-08-04T07:27:42;100777.13;;;26.49;36.70
61744;BME280;48718;54.994;73.352;2022-08-04T07:30:09;100772.44;;;26.50;36.12
61744;BME280;48718;54.994;73.352;2022-08-04T07:32:37;100775.19;;;26.50;36.43
61744;BME280;48718;54.994;73.352;2022-08-04T07:35:06;100776.00;;;26.50;36.39
61744;BME280;48718;54.994;73.352;2022-08-04T07:37:33;100782.28;;;26.51;36.18
61744;BME280;48718;54.994;73.352;2022-08-04T07:40:00;100773.25;;;26.50;35.86
61744;BME280;48718;54.994;73.352;2022-08-04T07:42:27;100769.69;;;26.50;35.67
61744;BME280;48718;54.994;73.352;2022-08-04T07:44:54;100760.34;;;26.51;36.39
61744;BME280;48718;54.994;73.352;2022-08-04T07:47:20;100761.97;;;26.52;36.29
61744;BME280;48718;54.994;73.352;2022-08-04T07:49:47;100757.59;;;26.51;36.71
61744;BME280;48718;54.994;73.352;2022-08-04T07:52:15;100761.72;;;26.54;36.72
61744;BME280;48718;54.994;73.352;2022-08-04T07:54:41;100757.34;;;26.53;36.32
61744;BME280;48718;54.994;73.352;2022-08-04T07:57:08;100755.38;;;26.53;36.43
61744;BME280;48718;54.994;73.352;2022-08-04T07:59:35;100752.66;;;26.53;35.62
61744;BME280;48718;54.994;73.352;2022-08-04T08:02:18;100747.16;;;26.53;36.01
61744;BME280;48718;54.994;73.352;2022-08-04T08:04:46;100758.13;;;26.53;35.51
61744;BME280;48718;54.994;73.352;2022-08-04T08:07:13;100743.31;;;26.54;35.77
61744;BME280;48718;54.994;73.352;2022-08-04T08:09:40;100752.66;;;26.53;35.95
61744;BME280;48718;54.994;73.352;2022-08-04T08:12:07;100754.00;;;26.56;36.61
61744;BME280;48718;54.994;73.352;2022-08-04T08:14:34;100751.53;;;26.54;36.68
61744;BME280;48718;54.994;73.352;2022-08-04T08:17:02;100744.94;;;26.55;36.41
61744;BME280;48718;54.994;73.352;2022-08-04T08:19:32;100752.06;;;26.56;36.99
61744;BME280;48718;54.994;73.352;2022-08-04T08:22:04;100749.63;;;26.55;36.29
61744;BME280;48718;54.994;73.352;2022-08-04T08:24:34;100750.44;;;26.55;36.31
61744;BME280;48718;54.994;73.352;2022-08-04T08:27:03;100750.16;;;26.57;36.49
61744;BME280;48718;54.994;73.352;2022-08-04T08:29:33;100746.56;;;26.56;36.57
61744;BME280;48718;54.994;73.352;2022-08-04T08:32:01;100746.56;;;26.56;37.15
61744;BME280;48718;54.994;73.352;2022-08-04T08:34:30;100718.34;;;26.56;36.74
61744;BME280;48718;54.994;73.352;2022-08-04T08:57:22;100734.56;;;26.52;36.16
61744;BME280;48718;54.994;73.352;2022-08-04T09:00:19;100741.69;;;26.53;36.32
61744;BME280;48718;54.994;73.352;2022-08-04T09:11:15;100748.78;;;26.54;36.34
61744;BME280;48718;54.994;73.352;2022-08-04T09:21:58;100748.00;;;26.54;35.05
61744;BME280;48718;54.994;73.352;2022-08-04T09:27:18;100739.47;;;26.55;34.71
61744;BME280;48718;54.994;73.352;2022-08-04T09:30:07;100740.56;;;26.54;34.54
61744;BME280;48718;54.994;73.352;2022-08-04T09:37:39;100734.50;;;26.57;35.72
61744;BME280;48718;54.994;73.352;2022-08-04T09:45:37;100735.31;;;26.58;34.29
61744;BME280;48718;54.994;73.352;2022-08-04T09:48:14;100733.69;;;26.57;33.81
61744;BME280;48718;54.994;73.352;2022-08-04T09:50:42;100728.72;;;26.59;34.83
61744;BME280;48718;54.994;73.352;2022-08-04T09:56:22;100733.38;;;26.58;35.07
61744;BME280;48718;54.994;73.352;2022-08-04T10:01:49;100736.97;;;26.59;34.71
61744;BME280;48718;54.994;73.352;2022-08-04T10:04:18;100729.53;;;26.59;34.68
61744;BME280;48718;54.994;73.352;2022-08-04T10:09:49;100727.31;;;26.61;35.57
61744;BME280;48718;54.994;73.352;2022-08-04T10:15:32;100724.28;;;26.63;35.62
61744;BME280;48718;54.994;73.352;2022-08-04T10:29:13;100726.13;;;26.68;36.98
61744;BME280;48718;54.994;73.352;2022-08-04T10:31:53;100723.91;;;26.70;37.18
61744;BME280;48718;54.994;73.352;2022-08-04T10:34:25;100742.00;;;26.71;37.51
61744;BME280;48718;54.994;73.352;2022-08-04T10:37:15;100737.91;;;26.68;36.22
61744;BME280;48718;54.994;73.352;2022-08-04T10:39:58;100751.94;;;26.66;35.31
61744;BME280;48718;54.994;73.352;2022-08-04T10:43:05;100732.00;;;26.61;34.92
61744;BME280;48718;54.994;73.352;2022-08-04T10:46:35;100720.78;;;26.57;34.69
61744;BME280;48718;54.994;73.352;2022-08-04T10:48:42;100718.34;;;26.56;35.18
61744;BME280;48718;54.994;73.352;2022-08-04T10:54:21;100739.47;;;26.55;34.27
61744;BME280;48718;54.994;73.352;2022-08-04T10:56:57;100726.03;;;26.54;34.32
61744;BME280;48718;54.994;73.352;2022-08-04T10:59:59;100729.06;;;26.52;34.20
61744;BME280;48718;54.994;73.352;2022-08-04T11:05:29;100725.78;;;26.50;34.33
61744;BME280;48718;54.994;73.352;2022-08-04T11:08:04;100727.44;;;26.51;34.15
61744;BME280;48718;54.994;73.352;2022-08-04T11:10:50;100730.78;;;26.48;34.13
61744;BME280;48718;54.994;73.352;2022-08-04T11:13:23;100715.44;;;26.47;33.96
61744;BME280;48718;54.994;73.352;2022-08-04T11:15:52;100710.75;;;26.47;33.96
61744;BME280;48718;54.994;73.352;2022-08-04T11:19:29;100710.47;;;26.49;33.96
61744;BME280;48718;54.994;73.352;2022-08-04T11:21:34;100720.31;;;26.50;33.40
61744;BME280;48718;54.994;73.352;2022-08-04T11:26:32;100717.06;;;26.48;33.23
61744;BME280;48718;54.994;73.352;2022-08-04T11:29:31;100722.03;;;26.46;33.24
61744;BME280;48718;54.994;73.352;2022-08-04T11:32:02;100722.03;;;26.46;33.29
61744;BME280;48718;54.994;73.352;2022-08-04T11:34:33;100713.81;;;26.46;33.56
61744;BME280;48718;54.994;73.352;2022-08-04T11:37:34;100708.31;;;26.46;33.35
61744;BME280;48718;54.994;73.352;2022-08-04T11:40:10;100714.03;;;26.49;33.51
61744;BME280;48718;54.994;73.352;2022-08-04T11:42:43;100698.88;;;26.52;33.62
61744;BME280;48718;54.994;73.352;2022-08-04T11:45:20;100722.47;;;26.53;33.84
61744;BME280;48718;54.994;73.352;2022-08-04T11:48:02;100717.28;;;26.51;33.66
61744;BME280;48718;54.994;73.352;2022-08-04T11:50:36;100708.75;;;26.53;33.98
61744;BME280;48718;54.994;73.352;2022-08-04T11:53:04;100714.75;;;26.55;34.02
61744;BME280;48718;54.994;73.352;2022-08-04T11:55:32;100710.63;;;26.58;33.71
61744;BME280;48718;54.994;73.352;2022-08-04T11:58:01;100694.97;;;26.58;33.37
61744;BME280;48718;54.994;73.352;2022-08-04T12:00:30;100696.59;;;26.59;33.46
61744;BME280;48718;54.994;73.352;2022-08-04T12:05:46;100701.50;;;26.62;34.03
61744;BME280;48718;54.994;73.352;2022-08-04T12:10:53;100699.28;;;26.64;33.34
61744;BME280;48718;54.994;73.352;2022-08-04T12:13:34;100714.13;;;26.63;32.99
61744;BME280;48718;54.994;73.352;2022-08-04T12:16:21;100691.13;;;26.59;32.46
61744;BME280;48718;54.994;73.352;2022-08-04T12:19:02;100707.59;;;26.59;32.06
61744;BME280;48718;54.994;73.352;2022-08-04T12:24:04;100700.25;;;26.55;31.12
61744;BME280;48718;54.994;73.352;2022-08-04T12:26:42;100689.56;;;26.53;30.93
61744;BME280;48718;54.994;73.352;2022-08-04T12:29:13;100692.28;;;26.53;30.75
61744;BME280;48718;54.994;73.352;2022-08-04T12:31:48;100686.81;;;26.53;30.80
61744;BME280;48718;54.994;73.352;2022-08-04T12:39:37;100692.81;;;26.55;30.80
61744;BME280;48718;54.994;73.352;2022-08-04T12:44:34;100700.19;;;26.60;31.29
61744;BME280;48718;54.994;73.352;2022-08-04T12:47:04;100697.66;;;26.63;31.10
61744;BME280;48718;54.994;73.352;2022-08-04T12:49:33;100696.84;;;26.63;31.25
61744;BME280;48718;54.994;73.352;2022-08-04T12:52:05;100693.81;;;26.64;31.42
61744;BME280;48718;54.994;73.352;2022-08-04T12:54:34;100702.56;;;26.66;31.56
61744;BME280;48718;54.994;73.352;2022-08-04T12:57:06;100697.06;;;26.66;31.69
61744;BME280;48718;54.994;73.352;2022-08-04T12:59:45;100691.88;;;26.65;31.78
61744;BME280;48718;54.994;73.352;2022-08-04T13:02:17;100698.19;;;26.65;31.82
61744;BME280;48718;54.994;73.352;2022-08-04T13:04:54;100705.81;;;26.69;32.13
61744;BME280;48718;54.994;73.352;2022-08-04T13:07:26;100704.19;;;26.68;32.02
61744;BME280;48718;54.994;73.352;2022-08-04T13:09:55;100710.47;;;26.68;32.30
61744;BME280;48718;54.994;73.352;2022-08-04T13:12:25;100698.69;;;26.68;32.38
61744;BME280;48718;54.994;73.352;2022-08-04T13:14:58;100704.19;;;26.68;32.50
61744;BME280;48718;54.994;73.352;2022-08-04T13:17:41;100701.13;;;26.69;32.48
61744;BME280;48718;54.994;73.352;2022-08-04T13:22:34;100703.59;;;26.71;32.37
61744;BME280;48718;54.994;73.352;2022-08-04T13:25:07;100708.50;;;26.74;32.69
61744;BME280;48718;54.994;73.352;2022-08-04T13:27:37;100715.63;;;26.75;32.53
61744;BME280;48718;54.994;73.352;2022-08-04T13:30:17;100706.28;;;26.76;32.72
61744;BME280;48718;54.994;73.352;2022-08-04T13:32:45;100719.09;;;26.80;33.01
61744;BME280;48718;54.994;73.352;2022-08-04T13:35:13;100709.78;;;26.82;32.73
61744;BME280;48718;54.994;73.352;2022-08-04T13:37:41;100720.75;;;26.82;32.44
61744;BME280;48718;54.994;73.352;2022-08-04T13:40:14;100718.28;;;26.80;32.23
61744;BME280;48718;54.994;73.352;2022-08-04T13:42:46;100721.84;;;26.80;32.47
61744;BME280;48718;54.994;73.352;2022-08-04T13:45:14;100708.97;;;26.81;32.03
61744;BME280;48718;54.994;73.352;2022-08-04T13:47:45;100716.66;;;26.79;31.88
61744;BME280;48718;54.994;73.352;2022-08-04T13:50:31;100720.53;;;26.78;32.04
61744;BME280;48718;54.994;73.352;2022-08-04T13:53:01;100720.53;;;26.78;32.06
61744;BME280;48718;54.994;73.352;2022-08-04T13:55:35;100716.66;;;26.79;32.36
61744;BME280;48718;54.994;73.352;2022-08-04T13:58:22;100712.28;;;26.78;32.50
61744;BME280;48718;54.994;73.352;2022-08-04T14:00:59;100722.16;;;26.79;32.51
61744;BME280;48718;54.994;73.352;2022-08-04T14:06:07;100711.97;;;26.79;32.79
61744;BME280;48718;54.994;73.352;2022-08-04T14:08:49;100712.81;;;26.80;32.93
61744;BME280;48718;54.994;73.352;2022-08-04T14:11:20;100720.47;;;26.83;33.06
61744;BME280;48718;54.994;73.352;2022-08-04T14:13:47;100722.59;;;26.86;33.00
61744;BME280;48718;54.994;73.352;2022-08-04T14:16:17;100725.88;;;26.88;33.18
61744;BME280;48718;54.994;73.352;2022-08-04T14:18:45;100720.38;;;26.88;33.34
61744;BME280;48718;54.994;73.352;2022-08-04T14:21:15;100725.88;;;26.88;33.46
61744;BME280;48718;54.994;73.352;2022-08-04T14:23:54;100731.38;;;26.88;33.47
61744;BME280;48718;54.994;73.352;2022-08-04T14:26:28;100730.56;;;26.88;33.48
61744;BME280;48718;54.994;73.352;2022-08-04T14:29:12;100722.59;;;26.86;33.58
61744;BME280;48718;54.994;73.352;2022-08-04T14:31:39;100731.38;;;26.88;33.81
61744;BME280;48718;54.994;73.352;2022-08-04T14:34:07;100724.25;;;26.87;33.69
61744;BME280;48718;54.994;73.352;2022-08-04T14:36:41;100735.22;;;26.87;33.91
61744;BME280;48718;54.994;73.352;2022-08-04T14:39:09;100728.09;;;26.86;34.05
61744;BME280;48718;54.994;73.352;2022-08-04T14:41:49;100728.72;;;26.83;34.05
61744;BME280;48718;54.994;73.352;2022-08-04T14:44:21;100731.47;;;26.83;34.14
61744;BME280;48718;54.994;73.352;2022-08-04T14:46:55;100730.94;;;26.81;34.25
61744;BME280;48718;54.994;73.352;2022-08-04T14:49:34;100743.53;;;26.82;34.28
61744;BME280;48718;54.994;73.352;2022-08-04T14:52:00;100738.06;;;26.82;34.40
61744;BME280;48718;54.994;73.352;2022-08-04T14:54:33;100744.66;;;26.81;34.58
61744;BME280;48718;54.994;73.352;2022-08-04T14:57:07;100744.09;;;26.79;34.56
61744;BME280;48718;54.994;73.352;2022-08-04T15:02:09;100749.94;;;26.72;34.84
61744;BME280;48718;54.994;73.352;2022-08-04T15:04:45;100762.84;;;26.72;34.98
61744;BME280;48718;54.994;73.352;2022-08-04T15:07:16;100759.28;;;26.71;34.88
61744;BME280;48718;54.994;73.352;2022-08-04T15:09:43;100762.84;;;26.72;34.98
61744;BME280;48718;54.994;73.352;2022-08-04T15:12:10;100762.56;;;26.73;35.00
61744;BME280;48718;54.994;73.352;2022-08-04T15:14:36;100761.75;;;26.73;35.16
61744;BME280;48718;54.994;73.352;2022-08-04T15:17:05;100761.22;;;26.71;35.48
61744;BME280;48718;54.994;73.352;2022-08-04T15:19:32;100772.19;;;26.71;35.12
61744;BME280;48718;54.994;73.352;2022-08-04T15:21:59;100774.63;;;26.72;35.28
61744;BME280;48718;54.994;73.352;2022-08-04T15:24:36;100767.00;;;26.69;35.21
61744;BME280;48718;54.994;73.352;2022-08-04T15:27:14;100772.84;;;26.62;35.18
61744;BME280;48718;54.994;73.352;2022-08-04T15:29:45;100781.13;;;26.57;35.31
61744;BME280;48718;54.994;73.352;2022-08-04T15:32:17;100777.84;;;26.55;35.47
61744;BME280;48718;54.994;73.352;2022-08-04T15:34:47;100781.72;;;26.54;35.33
61744;BME280;48718;54.994;73.352;2022-08-04T15:37:35;100778.97;;;26.54;35.45
61744;BME280;48718;54.994;73.352;2022-08-04T15:40:13;100775.44;;;26.54;35.50
61744;BME280;48718;54.994;73.352;2022-08-04T15:42:48;100781.72;;;26.54;36.22
61744;BME280;48718;54.994;73.352;2022-08-04T15:45:25;100782.53;;;26.55;36.65
61744;BME280;48718;54.994;73.352;2022-08-04T15:50:31;100782.25;;;26.56;36.50
61744;BME280;48718;54.994;73.352;2022-08-04T15:53:08;100771.78;;;26.58;37.00
61744;BME280;48718;54.994;73.352;2022-08-04T15:55:37;100783.59;;;26.59;36.86
61744;BME280;48718;54.994;73.352;2022-08-04T15:58:13;100781.97;;;26.58;37.02
61744;BME280;48718;54.994;73.352;2022-08-04T16:19:19;100802.84;;;26.54;36.89
61744;BME280;48718;54.994;73.352;2022-08-04T16:21:55;100798.75;;;26.51;36.92
61744;BME280;48718;54.994;73.352;2022-08-04T16:24:35;100790.03;;;26.49;37.00
61744;BME280;48718;54.994;73.352;2022-08-04T16:27:07;100790.31;;;26.47;36.94
61744;BME280;48718;54.994;73.352;2022-08-04T16:34:31;100799.13;;;26.44;36.93
61744;BME280;48718;54.994;73.352;2022-08-04T16:36:59;100796.69;;;26.43;36.70
61744;BME280;48718;54.994;73.352;2022-08-04T16:41:46;100804.38;;;26.41;36.83
61744;BME280;48718;54.994;73.352;2022-08-04T16:47:02;100796.69;;;26.43;36.76
61744;BME280;48718;54.994;73.352;2022-08-04T16:49:30;100802.16;;;26.43;36.67
61744;BME280;48718;54.994;73.352;2022-08-04T16:52:01;100798.88;;;26.41;36.72
61744;BME280;48718;54.994;73.352;2022-08-04T16:54:32;100802.16;;;26.43;36.74
61744;BME280;48718;54.994;73.352;2022-08-04T16:57:08;100796.69;;;26.43;36.72
61744;BME280;48718;54.994;73.352;2022-08-04T16:59:51;100798.59;;;26.42;36.71
61744;BME280;48718;54.994;73.352;2022-08-04T17:02:22;100802.16;;;26.43;36.75
61744;BME280;48718;54.994;73.352;2022-08-04T17:04:49;100792.28;;;26.42;36.71
61744;BME280;48718;54.994;73.352;2022-08-04T17:07:21;100795.03;;;26.42;36.82
61744;BME280;48718;54.994;73.352;2022-08-04T17:09:49;100793.09;;;26.42;36.49
61744;BME280;48718;54.994;73.352;2022-08-04T17:12:16;100795.56;;;26.44;36.42
61744;BME280;48718;54.994;73.352;2022-08-04T17:14:43;100797.25;;;26.40;36.44
61744;BME280;48718;54.994;73.352;2022-08-04T17:17:10;100786.28;;;26.40;36.45
61744;BME280;48718;54.994;73.352;2022-08-04T17:19:36;100791.78;;;26.40;36.38
61744;BME280;48718;54.994;73.352;2022-08-04T17:22:05;100789.56;;;26.42;36.56
61744;BME280;48718;54.994;73.352;2022-08-04T17:24:35;100779.97;;;26.39;36.48
61744;BME280;48718;54.994;73.352;2022-08-04T17:27:04;100792.88;;;26.39;36.28
61744;BME280;48718;54.994;73.352;2022-08-04T17:29:33;100789.88;;;26.35;35.91
61744;BME280;48718;54.994;73.352;2022-08-04T17:32:02;100786.88;;;26.36;36.42
61744;BME280;48718;54.994;73.352;2022-08-04T17:34:29;100789.88;;;26.35;36.23
61744;BME280;48718;54.994;73.352;2022-08-04T17:37:00;100790.72;;;26.35;36.29
61744;BME280;48718;54.994;73.352;2022-08-04T17:39:28;100797.84;;;26.36;36.46
61744;BME280;48718;54.994;73.352;2022-08-04T17:42:09;100799.47;;;26.38;36.41
61744;BME280;48718;54.994;73.352;2022-08-04T17:44:36;100796.72;;;26.38;36.56
61744;BME280;48718;54.994;73.352;2022-08-04T17:47:18;100806.59;;;26.39;36.59
61744;BME280;48718;54.994;73.352;2022-08-04T17:49:48;100801.91;;;26.39;36.60
61744;BME280;48718;54.994;73.352;2022-08-04T17:52:25;100805.19;;;26.41;36.59